Time;durP1;ratioP1;P1;durP2;ratioP2;P2;SDS_P1;SDS_P2;PMS_P1;PMS_P2;Temp;Humidity;BMP_temperature;BMP_pressure;BME280_temperature;BME280_humidity;BME280_pressure;Samples;Min_cycle;Max_cycle;Signal;HPM_P1;HPM_P2
2022/09/01 00:01:27;;;;;;;5.53;4.20;;;19.40;96.10;;;;;;5050316;28;20035;-81
2022/09/01 00:03:54;;;;;;;7.80;4.50;;;19.60;95.70;;;;;;5071104;28;20032;-80
2022/09/01 00:06:22;;;;;;;5.07;4.32;;;19.60;95.60;;;;;;5068896;28;20024;-82
2022/09/01 00:08:59;;;;;;;6.95;4.50;;;19.60;95.50;;;;;;5070831;28;20020;-79
2022/09/01 00:11:27;;;;;;;8.50;4.65;;;19.50;95.70;;;;;;5067942;28;20025;-79
2022/09/01 00:13:56;;;;;;;6.68;4.90;;;19.70;95.50;;;;;;5067817;28;20037;-77
2022/09/01 00:16:24;;;;;;;8.43;4.97;;;;;;;;;;5069098;28;20029;-77
2022/09/01 00:18:52;;;;;;;5.80;4.30;;;19.50;95.80;;;;;;5070602;28;20029;-80
2022/09/01 00:21:21;;;;;;;10.43;4.68;;;19.40;96.00;;;;;;5050321;28;20036;-81
2022/09/01 00:23:47;;;;;;;12.37;6.40;;;19.30;96.10;;;;;;5057956;28;20037;-80
2022/09/01 00:26:13;;;;;;;8.38;5.40;;;;;;;;;;5055146;28;20025;-80
2022/09/01 00:28:39;;;;;;;8.98;5.50;;;;;;;;;;5072588;28;20024;-81
2022/09/01 00:31:06;;;;;;;6.82;5.13;;;19.20;96.40;;;;;;5078395;28;20024;-81
2022/09/01 00:33:33;;;;;;;6.75;4.80;;;19.10;96.50;;;;;;5076450;28;21166;-80
2022/09/01 00:35:59;;;;;;;17.23;4.68;;;19.20;96.40;;;;;;5055528;28;20041;-80
2022/09/01 00:38:25;;;;;;;8.02;4.82;;;19.10;96.40;;;;;;5055613;28;20613;-81
2022/09/01 00:40:51;;;;;;;9.95;5.57;;;19.10;96.70;;;;;;5059288;28;20032;-80
2022/09/01 00:43:22;;;;;;;5.03;4.50;;;19.10;96.70;;;;;;5075482;28;20091;-76
2022/09/01 00:45:50;;;;;;;6.43;4.05;;;;;;;;;;5088095;28;20058;-77
2022/09/01 00:48:20;;;;;;;6.15;4.45;;;19.10;96.80;;;;;;5081332;28;20019;-81
2022/09/01 00:50:46;;;;;;;7.15;4.75;;;19.00;97.00;;;;;;5060811;28;20028;-78
2022/09/01 00:53:12;;;;;;;9.73;4.55;;;18.90;97.00;;;;;;5068924;28;20495;-79
2022/09/01 00:55:38;;;;;;;7.32;4.60;;;;;;;;;;5062058;28;20375;-77
2022/09/01 00:58:06;;;;;;;8.43;4.65;;;18.90;97.00;;;;;;5078109;28;20052;-81
2022/09/01 01:00:42;;;;;;;6.03;4.38;;;18.80;97.30;;;;;;5074553;28;20371;-78
2022/09/01 01:03:10;;;;;;;6.50;4.90;;;18.80;97.40;;;;;;5058545;28;20031;-80
2022/09/01 01:05:45;;;;;;;5.05;3.90;;;18.70;97.40;;;;;;5066822;28;20025;-79
2022/09/01 01:08:11;;;;;;;6.32;4.18;;;18.70;97.60;;;;;;5076379;28;20561;-80
2022/09/01 01:10:40;;;;;;;7.13;5.20;;;18.60;97.50;;;;;;5072320;28;20069;-78
2022/09/01 01:13:12;;;;;;;9.25;5.07;;;18.60;97.70;;;;;;5071414;28;20044;-81
2022/09/01 01:15:42;;;;;;;6.53;4.38;;;18.60;97.70;;;;;;5054255;28;20490;-79
2022/09/01 01:18:13;;;;;;;8.52;4.47;;;18.50;97.70;;;;;;5074727;28;20040;-77
2022/09/01 01:23:29;;;;;;;5.97;4.82;;;18.60;98.00;;;;;;5075361;28;20039;-78
2022/09/01 01:25:58;;;;;;;6.00;4.60;;;18.50;98.10;;;;;;5071761;28;20033;-76
2022/09/01 01:28:34;;;;;;;7.15;4.80;;;18.50;98.10;;;;;;5074074;28;20461;-80
2022/09/01 01:31:04;;;;;;;5.80;4.25;;;18.40;98.20;;;;;;5069886;28;20021;-79
2022/09/01 01:33:35;;;;;;;6.75;4.15;;;18.50;97.80;;;;;;5071503;28;20028;-80
2022/09/01 01:36:02;;;;;;;5.72;4.38;;;18.50;97.70;;;;;;5074738;28;20103;-77
2022/09/01 01:38:28;;;;;;;5.53;3.95;;;;;;;;;;5070150;28;20440;-80
2022/09/01 01:40:55;;;;;;;6.38;4.40;;;;;;;;;;5071451;28;20099;-78
2022/09/01 01:43:22;;;;;;;5.35;4.20;;;18.40;97.90;;;;;;5047931;28;20214;-81
2022/09/01 01:45:53;;;;;;;7.85;4.15;;;18.40;98.20;;;;;;5048000;28;20560;-79
2022/09/01 01:48:23;;;;;;;5.63;4.00;;;18.40;98.00;;;;;;5062362;28;20029;-80
2022/09/01 01:50:51;;;;;;;6.68;4.28;;;18.30;98.10;;;;;;5064158;28;20107;-79
2022/09/01 01:53:18;;;;;;;6.78;4.18;;;18.30;98.30;;;;;;5069559;28;20040;-81
2022/09/01 01:55:44;;;;;;;6.03;4.32;;;;;;;;;;5066594;28;20033;-81
2022/09/01 01:58:10;;;;;;;7.05;3.83;;;18.30;98.20;;;;;;5065788;28;20032;-80
2022/09/01 02:00:37;;;;;;;9.10;4.43;;;;;;;;;;5048265;28;20038;-81
2022/09/01 02:03:04;;;;;;;9.25;4.07;;;18.20;98.40;;;;;;5065463;28;20948;-81
2022/09/01 02:05:32;;;;;;;7.05;4.50;;;18.20;98.60;;;;;;5064175;28;20028;-81
2022/09/01 02:08:04;;;;;;;6.60;4.28;;;18.20;98.80;;;;;;5063653;28;20013;-79
2022/09/01 02:10:33;;;;;;;8.93;4.55;;;18.10;98.90;;;;;;5054711;28;20020;-78
2022/09/01 02:13:06;;;;;;;6.47;4.50;;;18.00;98.90;;;;;;5170725;22;20037;-79
2022/09/01 02:15:37;;;;;;;5.95;4.47;;;18.00;99.00;;;;;;5036107;28;20528;-82
2022/09/01 02:18:03;;;;;;;6.80;4.53;;;18.10;99.10;;;;;;5019457;28;20025;-80
2022/09/01 02:20:31;;;;;;;9.40;4.63;;;18.00;99.20;;;;;;5032483;28;20025;-79
2022/09/01 02:22:59;;;;;;;7.25;4.80;;;18.10;99.10;;;;;;5027274;28;20064;-79
2022/09/01 02:25:27;;;;;;;8.13;4.40;;;18.00;99.10;;;;;;5032070;28;20022;-79
2022/09/01 02:27:54;;;;;;;7.00;4.43;;;18.00;99.30;;;;;;5020543;28;20057;-79
2022/09/01 02:30:21;;;;;;;6.47;4.35;;;17.90;99.50;;;;;;5037217;28;20109;-79
2022/09/01 02:32:46;;;;;;;7.65;4.70;;;17.90;99.70;;;;;;5032829;28;20512;-79
2022/09/01 02:35:12;;;;;;;7.43;4.57;;;17.80;99.60;;;;;;5022221;28;20025;-79
2022/09/01 02:37:39;;;;;;;5.85;4.32;;;17.80;99.80;;;;;;5027241;28;20044;-78
2022/09/01 02:40:09;;;;;;;6.93;4.65;;;17.80;99.80;;;;;;5014200;28;20025;-79
2022/09/01 02:42:39;;;;;;;7.47;4.43;;;17.80;99.90;;;;;;5034336;28;20026;-78
2022/09/01 02:45:14;;;;;;;4.85;4.28;;;17.80;99.70;;;;;;5032456;28;20052;-78
2022/09/01 02:47:45;;;;;;;6.07;4.40;;;17.80;99.90;;;;;;5008748;28;20040;-79
2022/09/01 02:50:18;;;;;;;5.65;4.50;;;17.80;99.90;;;;;;5031848;28;20051;-79
2022/09/01 02:52:48;;;;;;;7.35;4.25;;;17.70;99.90;;;;;;5013700;28;20033;-79
2022/09/01 02:55:19;;;;;;;6.50;4.55;;;17.60;99.90;;;;;;5025782;28;20037;-78
2022/09/01 02:57:47;;;;;;;6.32;5.10;;;17.60;99.90;;;;;;5025529;28;20034;-78
2022/09/01 03:00:50;;;;;;;6.47;4.57;;;17.60;99.90;;;;;;5008091;28;20030;-79
2022/09/01 03:03:07;;;;;;;6.05;4.63;;;17.50;99.90;;;;;;5017374;28;20044;-78
2022/09/01 03:05:34;;;;;;;6.35;4.97;;;17.40;99.90;;;;;;5025594;28;20021;-78
2022/09/01 03:08:03;;;;;;;6.47;5.32;;;17.50;99.90;;;;;;5023952;28;20028;-79
2022/09/01 03:10:34;;;;;;;7.15;4.70;;;17.30;99.90;;;;;;5010380;28;20022;-80
2022/09/01 03:13:07;;;;;;;7.55;5.10;;;17.20;99.90;;;;;;5006413;28;20374;-80
2022/09/01 03:15:35;;;;;;;9.30;5.85;;;17.20;99.90;;;;;;5029778;28;20029;-78
2022/09/01 03:18:02;;;;;;;6.10;5.20;;;17.20;99.90;;;;;;5013450;28;20034;-79
2022/09/01 03:20:32;;;;;;;6.40;4.78;;;17.10;99.90;;;;;;5025737;28;20088;-80
2022/09/01 03:23:00;;;;;;;10.00;4.53;;;17.10;99.90;;;;;;5034259;28;20025;-80
2022/09/01 03:25:28;;;;;;;9.35;5.82;;;17.00;99.90;;;;;;5028470;28;20043;-78
2022/09/01 03:27:58;;;;;;;8.88;5.38;;;17.00;99.90;;;;;;5014705;28;20037;-79
2022/09/01 03:30:25;;;;;;;7.78;5.50;;;17.10;99.90;;;;;;5030913;28;20108;-79
2022/09/01 03:32:51;;;;;;;7.57;4.95;;;17.10;99.90;;;;;;5030254;28;20037;-79
2022/09/01 03:35:17;;;;;;;10.00;5.18;;;17.00;99.90;;;;;;5034464;28;20115;-80
2022/09/01 03:37:43;;;;;;;6.80;4.60;;;17.10;99.90;;;;;;5018253;28;20037;-81
2022/09/01 03:40:11;;;;;;;7.07;5.18;;;17.00;99.90;;;;;;5018245;28;20583;-81
2022/09/01 03:42:37;;;;;;;7.68;5.28;;;17.00;99.90;;;;;;5028997;28;20033;-79
2022/09/01 03:45:08;;;;;;;5.93;5.18;;;16.90;99.90;;;;;;5026126;28;20044;-79
2022/09/01 03:47:39;;;;;;;6.68;4.78;;;16.90;99.90;;;;;;5019499;28;20029;-79
2022/09/01 03:50:11;;;;;;;7.15;4.82;;;16.90;99.90;;;;;;5028717;28;20037;-79
2022/09/01 03:52:39;;;;;;;5.93;4.63;;;16.90;99.90;;;;;;5027491;28;20025;-79
2022/09/01 03:55:05;;;;;;;7.30;5.35;;;16.90;99.90;;;;;;5021452;28;20025;-79
2022/09/01 03:57:31;;;;;;;7.25;5.35;;;16.90;99.90;;;;;;5016906;28;20022;-79
2022/09/01 03:59:57;;;;;;;6.30;4.90;;;16.90;99.90;;;;;;5030916;28;20070;-79
2022/09/01 04:02:28;;;;;;;7.40;5.15;;;16.90;99.90;;;;;;5030473;28;20014;-79
2022/09/01 04:04:53;;;;;;;;;;;16.90;99.90;;;;;;5032667;28;20100;-78
2022/09/01 04:07:19;;;;;;;6.75;4.35;;;16.90;99.90;;;;;;5013523;28;19908;-80
2022/09/01 04:09:45;;;;;;;6.57;4.93;;;16.90;99.90;;;;;;5013827;28;20101;-79
2022/09/01 04:12:14;;;;;;;7.05;5.20;;;;;;;;;;5006910;28;20489;-79
2022/09/01 04:14:40;;;;;;;5.78;4.50;;;16.90;99.90;;;;;;5027392;28;20060;-80
2022/09/01 04:19:50;;;;;;;6.70;4.70;;;16.90;99.90;;;;;;5035138;28;20048;-80
2022/09/01 04:22:16;;;;;;;7.43;4.75;;;16.80;99.90;;;;;;5038163;28;20397;-79
2022/09/01 04:24:44;;;;;;;8.23;4.30;;;;;;;;;;5030576;28;20049;-79
2022/09/01 04:27:10;;;;;;;5.90;4.57;;;16.80;99.90;;;;;;5024763;28;20025;-79
2022/09/01 04:29:36;;;;;;;7.50;4.18;;;;;;;;;;5004249;28;20036;-79
2022/09/01 04:32:06;;;;;;;6.60;4.63;;;16.70;99.90;;;;;;5008503;28;20589;-79
2022/09/01 04:34:38;;;;;;;6.38;4.65;;;16.80;99.90;;;;;;5029003;28;20033;-78
2022/09/01 04:37:17;;;;;;;5.72;4.25;;;16.70;99.90;;;;;;5007398;28;20032;-79
2022/09/01 04:39:51;;;;;;;6.65;4.25;;;16.70;99.90;;;;;;5009526;28;20033;-79
2022/09/01 04:42:17;;;;;;;8.45;4.05;;;16.60;99.90;;;;;;5011929;28;20112;-78
2022/09/01 04:44:45;;;;;;;5.95;4.53;;;16.60;99.90;;;;;;5027555;28;20112;-79
2022/09/01 04:47:13;;;;;;;5.35;4.32;;;16.50;99.90;;;;;;5022316;28;20064;-80
2022/09/01 04:49:40;;;;;;;6.10;4.93;;;16.50;99.90;;;;;;5023359;28;20033;-79
2022/09/01 04:52:06;;;;;;;10.57;5.18;;;16.40;99.90;;;;;;5044284;28;20022;-79
2022/09/01 04:54:34;;;;;;;8.45;4.75;;;16.30;99.90;;;;;;5030574;28;20111;-78
2022/09/01 04:57:00;;;;;;;6.40;4.72;;;16.20;99.90;;;;;;4998349;28;20030;-78
2022/09/01 04:59:28;;;;;;;6.35;5.10;;;;;;;;;;5025626;28;20031;-79
2022/09/01 05:01:56;;;;;;;7.57;4.53;;;16.20;99.90;;;;;;5008830;28;20462;-79
2022/09/01 05:04:26;;;;;;;7.28;5.07;;;16.20;99.90;;;;;;5033951;28;20386;-79
2022/09/01 05:06:58;;;;;;;6.55;5.03;;;16.10;99.90;;;;;;5011630;28;20022;-79
2022/09/01 05:09:36;;;;;;;7.90;5.00;;;16.10;99.90;;;;;;5008442;28;20034;-78
2022/09/01 05:12:14;;;;;;;5.40;4.43;;;16.20;99.90;;;;;;5012259;28;20100;-80
2022/09/01 05:14:47;;;;;;;6.70;4.75;;;16.20;99.90;;;;;;5019671;28;20383;-79
2022/09/01 05:17:13;;;;;;;6.97;4.25;;;16.10;99.90;;;;;;5015334;28;20462;-78
2022/09/01 05:19:42;;;;;;;7.03;4.90;;;16.20;99.90;;;;;;5007656;28;20037;-79
2022/09/01 05:22:09;;;;;;;5.97;4.68;;;16.40;99.90;;;;;;5026352;28;20029;-79
2022/09/01 05:24:36;;;;;;;6.72;4.43;;;16.40;99.90;;;;;;5031435;28;20021;-79
2022/09/01 05:27:04;;;;;;;9.80;4.75;;;16.30;99.90;;;;;;5047642;28;20041;-78
2022/09/01 05:29:30;;;;;;;7.57;4.35;;;16.40;99.90;;;;;;5047667;28;20033;-78
2022/09/01 05:31:57;;;;;;;7.93;4.32;;;16.40;99.90;;;;;;5026432;28;20039;-78
2022/09/01 05:34:28;;;;;;;7.30;4.60;;;16.40;99.90;;;;;;5028156;28;20048;-79
2022/09/01 05:36:58;;;;;;;8.07;4.63;;;16.50;99.90;;;;;;5036070;28;20089;-79
2022/09/01 05:39:24;;;;;;;5.43;4.20;;;16.40;99.90;;;;;;5038690;28;20017;-79
2022/09/01 05:41:52;;;;;;;7.15;4.30;;;16.50;99.90;;;;;;5028002;28;20033;-79
2022/09/01 05:44:21;;;;;;;7.68;3.97;;;16.60;99.90;;;;;;5045375;28;20033;-81
2022/09/01 05:46:48;;;;;;;6.90;4.47;;;16.50;99.90;;;;;;5055889;28;20025;-80
2022/09/01 05:49:17;;;;;;;5.05;4.20;;;16.60;99.90;;;;;;5047301;28;20032;-81
2022/09/01 05:51:48;;;;;;;5.13;3.75;;;16.60;99.90;;;;;;5033669;28;20017;-81
2022/09/01 05:54:16;;;;;;;6.22;3.97;;;16.80;99.90;;;;;;5049554;28;20017;-80
2022/09/01 05:56:42;;;;;;;8.75;4.20;;;17.00;99.90;;;;;;5029738;28;20041;-81
2022/09/01 05:59:09;;;;;;;5.88;3.88;;;17.10;99.90;;;;;;5019205;28;20045;-81
2022/09/01 06:01:39;;;;;;;4.13;3.67;;;17.10;99.90;;;;;;5020281;28;20133;-78
2022/09/01 06:04:06;;;;;;;5.10;3.80;;;17.10;99.90;;;;;;5026137;28;20453;-80
2022/09/01 06:06:45;;;;;;;7.78;3.83;;;17.10;99.90;;;;;;5035762;28;20028;-77
2022/09/01 06:09:12;;;;;;;7.25;3.70;;;17.10;99.90;;;;;;5022438;28;20240;-78
2022/09/01 06:11:41;;;;;;;6.50;3.80;;;17.20;99.90;;;;;;5032895;28;20025;-78
2022/09/01 06:14:10;;;;;;;6.28;4.00;;;17.20;99.90;;;;;;5033451;28;20037;-77
2022/09/01 06:16:36;;;;;;;6.93;3.63;;;17.20;99.90;;;;;;5035157;28;20033;-78
2022/09/01 06:19:03;;;;;;;5.13;3.67;;;17.20;99.90;;;;;;5010302;28;20034;-79
2022/09/01 06:21:30;;;;;;;6.30;3.70;;;17.30;99.90;;;;;;5011509;28;20481;-78
2022/09/01 06:23:57;;;;;;;6.25;3.40;;;17.50;99.90;;;;;;5016716;28;20037;-77
2022/09/01 06:26:27;;;;;;;6.03;3.53;;;17.40;99.90;;;;;;5026065;28;20025;-78
2022/09/01 06:28:55;;;;;;;9.05;3.63;;;17.40;99.90;;;;;;5030314;28;20048;-78
2022/09/01 06:31:22;;;;;;;6.85;3.47;;;17.40;99.90;;;;;;5027629;28;20083;-77
2022/09/01 06:33:52;;;;;;;8.00;3.80;;;17.40;99.90;;;;;;5014920;28;20026;-77
2022/09/01 06:36:20;;;;;;;7.13;3.50;;;17.40;99.90;;;;;;5011135;28;20033;-77
2022/09/01 06:38:46;;;;;;;6.75;3.80;;;17.40;99.90;;;;;;5005961;28;20288;-77
2022/09/01 06:41:12;;;;;;;7.78;3.53;;;17.40;99.90;;;;;;5013941;28;20029;-77
2022/09/01 06:43:41;;;;;;;21.92;4.45;;;17.50;99.90;;;;;;5013315;28;20112;-77
2022/09/01 06:46:08;;;;;;;5.55;3.42;;;17.60;99.90;;;;;;5003865;28;20025;-77
2022/09/01 06:48:38;;;;;;;6.30;3.55;;;17.70;99.90;;;;;;4997382;28;20033;-78
2022/09/01 06:51:08;;;;;;;;;;;17.70;99.90;;;;;;5022677;28;20018;-78
2022/09/01 06:53:34;;;;;;;4.78;3.60;;;17.80;99.90;;;;;;5028454;28;20461;-78
2022/09/01 06:55:59;;;;;;;6.15;3.60;;;17.90;99.90;;;;;;5014125;28;20064;-77
2022/09/01 06:58:25;;;;;;;11.13;3.97;;;18.20;99.90;;;;;;5032470;28;20561;-77
2022/09/01 07:00:51;;;;;;;7.85;3.05;;;18.20;99.90;;;;;;5016067;28;20398;-78
2022/09/01 07:03:17;;;;;;;5.90;3.90;;;18.30;99.90;;;;;;5036062;28;20056;-78
2022/09/01 07:05:45;;;;;;;5.22;3.55;;;18.50;99.90;;;;;;5030306;28;20021;-77
2022/09/01 07:08:16;;;;;;;6.97;3.28;;;18.70;99.90;;;;;;5030663;28;20025;-77
2022/09/01 07:10:45;;;;;;;5.68;3.00;;;18.60;99.90;;;;;;5025740;28;20033;-78
2022/09/01 07:13:20;;;;;;;4.93;3.45;;;18.80;99.90;;;;;;5006871;28;20144;-78
2022/09/01 07:15:48;;;;;;;5.97;3.30;;;18.80;99.90;;;;;;5023699;28;20022;-77
2022/09/01 07:18:16;;;;;;;5.22;3.22;;;18.90;99.90;;;;;;5023589;28;20017;-77
2022/09/01 07:20:43;;;;;;;4.53;2.70;;;19.00;99.90;;;;;;5028201;28;20383;-78
2022/09/01 07:23:10;;;;;;;5.18;3.08;;;19.20;99.90;;;;;;5007904;28;20084;-78
2022/09/01 07:25:41;;;;;;;5.05;3.00;;;19.40;99.60;;;;;;5022959;28;20026;-77
2022/09/01 07:28:07;;;;;;;6.88;3.33;;;22.20;99.90;;;;;;5019534;28;20537;-77
2022/09/01 07:30:34;;;;;;;6.68;2.85;;;;;;;;;;5008975;28;20026;-80
2022/09/01 07:33:00;;;;;;;3.83;2.92;;;19.60;99.40;;;;;;5008028;28;20470;-78
2022/09/01 07:35:26;;;;;;;5.38;3.50;;;19.70;99.20;;;;;;5026208;28;20099;-77
2022/09/01 07:37:52;;;;;;;7.45;3.15;;;19.70;99.40;;;;;;5014544;28;20033;-77
2022/09/01 07:40:21;;;;;;;4.43;3.17;;;19.90;99.30;;;;;;5024506;28;20101;-77
2022/09/01 07:42:48;;;;;;;5.63;3.50;;;19.90;99.20;;;;;;5025689;28;20390;-78
2022/09/01 07:45:15;;;;;;;6.82;3.35;;;20.00;98.90;;;;;;5007849;28;20025;-78
2022/09/01 07:47:43;;;;;;;5.50;3.25;;;20.10;99.10;;;;;;5011077;28;20050;-79
2022/09/01 07:50:11;;;;;;;6.60;3.33;;;20.20;98.90;;;;;;5013798;28;20021;-79
2022/09/01 07:52:41;;;;;;;4.68;3.70;;;20.30;98.90;;;;;;5034601;28;20030;-79
2022/09/01 07:55:12;;;;;;;9.20;3.55;;;20.50;98.60;;;;;;5019910;28;20033;-79
2022/09/01 07:57:41;;;;;;;6.00;3.35;;;20.50;98.70;;;;;;5018281;28;20055;-78
2022/09/01 08:00:10;;;;;;;5.80;3.42;;;20.60;98.60;;;;;;5026801;28;20474;-78
2022/09/01 08:02:38;;;;;;;7.38;3.65;;;20.60;98.60;;;;;;5027873;28;20481;-78
2022/09/01 08:05:09;;;;;;;6.22;3.83;;;20.70;98.00;;;;;;5009008;28;20037;-77
2022/09/01 08:07:38;;;;;;;5.57;3.60;;;20.70;98.20;;;;;;5025466;28;20500;-77
2022/09/01 08:10:05;;;;;;;5.13;3.50;;;20.60;98.30;;;;;;5028186;28;20029;-76
2022/09/01 08:12:33;;;;;;;6.57;3.38;;;20.70;97.90;;;;;;5045479;22;20041;-83
2022/09/01 08:15:00;;;;;;;5.35;3.28;;;20.70;97.90;;;;;;5032356;28;20380;-81
2022/09/01 08:17:26;;;;;;;6.25;3.65;;;20.70;98.10;;;;;;5029087;28;20074;-82
2022/09/01 08:19:52;;;;;;;5.68;3.30;;;20.80;97.90;;;;;;5035541;28;20431;-80
2022/09/01 08:22:22;;;;;;;3.95;3.10;;;20.90;97.60;;;;;;5043016;28;20116;-82
2022/09/01 08:24:48;;;;;;;5.05;3.40;;;21.20;97.30;;;;;;5024968;28;20135;-80
2022/09/01 08:27:14;;;;;;;4.75;3.67;;;21.20;97.50;;;;;;5040429;28;20030;-81
2022/09/01 08:29:40;;;;;;;4.70;3.05;;;21.30;97.30;;;;;;5031816;28;20047;-83
2022/09/01 08:32:06;;;;;;;4.55;3.38;;;;;;;;;;5064415;28;20092;-79
2022/09/01 08:34:33;;;;;;;4.20;3.03;;;21.30;97.10;;;;;;5049809;28;20025;-79
2022/09/01 08:36:58;;;;;;;5.38;3.30;;;21.40;97.20;;;;;;5070759;28;20025;-79
2022/09/01 08:39:24;;;;;;;5.35;3.90;;;21.40;97.10;;;;;;5051217;28;20009;-80
2022/09/01 08:42:02;;;;;;;4.78;3.40;;;21.50;96.80;;;;;;5056251;28;20029;-79
2022/09/01 08:44:30;;;;;;;6.43;3.17;;;21.70;96.80;;;;;;5076325;28;20039;-78
2022/09/01 08:47:06;;;;;;;7.38;3.17;;;21.70;96.70;;;;;;5055074;28;20013;-80
2022/09/01 08:49:35;;;;;;;7.43;3.90;;;21.70;96.80;;;;;;5052655;28;20063;-79
2022/09/01 08:52:20;;;;;;;6.35;3.60;;;21.90;96.80;;;;;;5047555;28;20037;-80
2022/09/01 08:54:58;;;;;;;7.30;3.65;;;22.40;96.00;;;;;;5048013;28;20026;-80
2022/09/01 08:57:45;;;;;;;6.32;3.67;;;22.40;96.20;;;;;;5031899;28;20037;-79
2022/09/01 09:00:15;;;;;;;4.95;3.60;;;22.00;95.50;;;;;;5033748;28;20477;-80
2022/09/01 09:03:19;;;;;;;5.63;3.58;;;22.40;95.90;;;;;;5029563;28;20029;-80
2022/09/01 09:06:07;;;;;;;4.45;3.47;;;22.30;95.80;;;;;;5050535;28;20106;-79
2022/09/01 09:08:54;;;;;;;5.82;3.45;;;22.20;96.00;;;;;;5047785;28;20025;-79
2022/09/01 09:11:45;;;;;;;4.97;3.30;;;22.20;96.10;;;;;;5044530;28;20027;-80
2022/09/01 09:14:29;;;;;;;4.40;3.10;;;22.30;96.00;;;;;;5055178;28;20041;-81
2022/09/01 09:16:56;;;;;;;4.10;3.22;;;22.60;95.30;;;;;;5047116;28;20066;-81
2022/09/01 09:19:23;;;;;;;5.85;3.40;;;22.70;95.10;;;;;;5041383;28;20040;-80
2022/09/01 09:21:52;;;;;;;5.25;3.38;;;22.70;95.20;;;;;;5058995;28;20039;-80
2022/09/01 09:27:23;;;;;;;5.88;3.40;;;22.60;95.30;;;;;;5064229;28;20039;-80
2022/09/01 09:29:52;;;;;;;6.55;3.45;;;22.50;95.20;;;;;;5050183;28;20655;-78
2022/09/01 09:32:19;;;;;;;4.90;3.38;;;22.60;95.10;;;;;;5056563;28;20028;-80
2022/09/01 09:34:45;;;;;;;5.88;3.33;;;22.70;95.20;;;;;;5058308;28;20025;-82
2022/09/01 09:37:28;;;;;;;9.70;3.67;;;22.90;95.00;;;;;;5043579;28;20033;-79
2022/09/01 09:40:04;;;;;;;4.88;3.35;;;22.90;95.00;;;;;;5028306;28;20370;-79
2022/09/01 09:42:30;;;;;;;5.72;3.40;;;23.00;94.90;;;;;;5048482;28;20884;-80
2022/09/01 09:44:56;;;;;;;6.07;3.05;;;;;;;;;;5029136;28;20037;-80
2022/09/01 09:47:43;;;;;;;4.22;3.40;;;23.30;94.40;;;;;;5036818;28;20094;-80
2022/09/01 09:50:21;;;;;;;6.93;3.70;;;23.10;94.60;;;;;;5027526;28;20032;-82
2022/09/01 09:52:48;;;;;;;6.82;3.88;;;23.20;94.80;;;;;;5025726;28;20025;-81
2022/09/01 09:55:26;;;;;;;6.00;3.92;;;23.40;93.90;;;;;;5029642;28;20070;-81
2022/09/01 09:57:58;;;;;;;7.30;3.70;;;23.40;94.00;;;;;;5034313;28;20036;-82
2022/09/01 10:00:34;;;;;;;4.88;3.63;;;23.50;93.90;;;;;;5051170;28;20033;-82
2022/09/01 10:03:03;;;;;;;4.03;3.20;;;23.70;93.50;;;;;;5035551;28;20028;-82
2022/09/01 10:05:40;;;;;;;4.57;3.45;;;23.60;93.30;;;;;;5048646;28;20026;-82
2022/09/01 10:08:35;;;;;;;7.55;4.10;;;23.40;93.80;;;;;;5038282;28;20326;-80
2022/09/01 10:11:03;;;;;;;6.20;3.55;;;23.70;93.40;;;;;;5051775;28;20031;-83
2022/09/01 10:13:31;;;;;;;5.43;4.25;;;23.90;93.20;;;;;;5045069;28;20045;-83
2022/09/01 10:16:03;;;;;;;5.68;3.47;;;24.00;93.10;;;;;;5033707;28;20038;-83
2022/09/01 10:18:34;;;;;;;4.30;3.38;;;24.10;93.00;;;;;;5042093;28;20025;-84
2022/09/01 10:21:10;;;;;;;6.65;3.65;;;24.10;92.80;;;;;;5032872;28;20185;-82
2022/09/01 10:23:37;;;;;;;5.18;3.13;;;24.10;92.90;;;;;;5034592;28;20041;-82
2022/09/01 10:26:11;;;;;;;5.20;3.25;;;24.20;92.10;;;;;;5029044;28;20025;-82
2022/09/01 10:28:55;;;;;;;5.03;3.47;;;24.70;91.40;;;;;;5034010;28;20039;-81
2022/09/01 10:31:21;;;;;;;4.38;3.15;;;24.70;91.50;;;;;;5030718;28;20025;-79
2022/09/01 10:33:48;;;;;;;4.60;2.75;;;24.70;90.70;;;;;;5034233;28;20044;-83
2022/09/01 10:36:15;;;;;;;6.63;3.28;;;24.50;90.80;;;;;;5026512;28;20021;-81
2022/09/01 10:38:42;;;;;;;4.13;3.30;;;;;;;;;;5032020;28;20029;-79
2022/09/01 10:41:08;;;;;;;4.38;3.40;;;;;;;;;;5044815;28;20095;-82
2022/09/01 10:43:46;;;;;;;5.05;3.85;;;24.20;90.90;;;;;;5051609;28;20029;-81
2022/09/01 10:46:21;;;;;;;5.57;2.97;;;24.60;90.90;;;;;;5047690;28;20029;-83
2022/09/01 10:48:49;;;;;;;5.40;3.03;;;24.60;91.10;;;;;;5047470;28;20029;-83
2022/09/01 10:51:15;;;;;;;3.88;3.13;;;;;;;;;;5047097;28;20100;-81
2022/09/01 10:53:46;;;;;;;8.10;3.10;;;25.00;90.00;;;;;;5037836;28;20474;-81
2022/09/01 10:56:23;;;;;;;4.68;3.53;;;28.00;91.20;;;;;;5043974;28;20044;-83
2022/09/01 10:58:58;;;;;;;4.35;3.63;;;24.80;89.80;;;;;;5032302;28;20037;-80
2022/09/01 11:01:39;;;;;;;3.97;3.20;;;24.50;90.10;;;;;;5034145;28;20029;-83
2022/09/01 11:04:15;;;;;;;5.55;3.67;;;24.50;90.30;;;;;;5028261;28;20025;-81
2022/09/01 11:06:41;;;;;;;5.22;3.50;;;24.70;90.20;;;;;;5033628;28;20045;-82
2022/09/01 11:09:18;;;;;;;5.22;3.42;;;25.00;89.40;;;;;;5048634;28;20135;-82
2022/09/01 11:11:46;;;;;;;4.22;3.10;;;24.60;89.80;;;;;;5031107;28;20025;-80
2022/09/01 11:14:25;;;;;;;3.97;3.35;;;24.60;90.10;;;;;;5034676;28;20044;-80
2022/09/01 11:17:11;;;;;;;4.67;3.50;;;24.80;90.10;;;;;;5035151;28;20044;-81
2022/09/01 11:19:46;;;;;;;5.43;3.50;;;24.90;89.90;;;;;;5039722;28;20299;-80
2022/09/01 11:22:21;;;;;;;4.82;3.95;;;24.70;89.10;;;;;;5028166;28;20029;-79
2022/09/01 11:24:51;;;;;;;6.95;3.25;;;24.70;89.60;;;;;;5049331;28;20029;-80
2022/09/01 11:27:55;;;;;;;5.15;3.50;;;24.70;89.90;;;;;;5050127;28;20021;-82
2022/09/01 11:30:32;;;;;;;5.57;3.17;;;25.00;89.60;;;;;;5029685;28;20044;-81
2022/09/01 11:33:09;;;;;;;4.15;3.13;;;25.40;85.70;;;;;;5040838;28;20032;-80
2022/09/01 11:35:34;;;;;;;4.20;3.20;;;25.40;85.70;;;;;;5039224;28;20081;-79
2022/09/01 11:38:06;;;;;;;4.45;2.97;;;25.40;86.30;;;;;;5030790;28;20028;-80
2022/09/01 11:40:34;;;;;;;6.10;3.13;;;24.90;87.30;;;;;;5024527;28;20226;-81
2022/09/01 11:43:05;;;;;;;4.03;3.03;;;24.80;88.20;;;;;;5034930;28;20060;-79
2022/09/01 11:45:35;;;;;;;4.53;3.17;;;24.90;87.80;;;;;;5038043;28;20022;-82
2022/09/01 11:48:08;;;;;;;7.68;3.58;;;24.70;88.10;;;;;;5034848;28;20043;-80
2022/09/01 11:50:36;;;;;;;4.88;3.30;;;24.50;87.40;;;;;;5056865;28;20024;-82
2022/09/01 11:53:08;;;;;;;4.55;3.22;;;24.50;88.20;;;;;;5036987;28;20025;-82
2022/09/01 11:55:38;;;;;;;9.80;3.72;;;24.50;88.50;;;;;;5035125;28;20036;-80
2022/09/01 11:58:04;;;;;;;;;;;24.40;89.00;;;;;;5033301;28;20048;-80
2022/09/01 12:00:37;;;;;;;4.18;3.13;;;24.30;89.50;;;;;;5033935;28;19988;-80
2022/09/01 12:03:19;;;;;;;4.85;3.22;;;24.20;90.00;;;;;;5032727;28;20021;-82
2022/09/01 12:05:50;;;;;;;4.82;3.08;;;24.10;89.30;;;;;;5035775;28;20036;-80
2022/09/01 12:08:18;;;;;;;3.72;3.00;;;24.10;89.50;;;;;;5057023;28;20025;-82
2022/09/01 12:10:45;;;;;;;4.30;3.03;;;24.20;88.60;;;;;;5055638;28;20431;-83
2022/09/01 12:13:14;;;;;;;5.03;3.42;;;24.10;89.00;;;;;;5042451;28;20036;-81
2022/09/01 12:15:41;;;;;;;4.17;2.73;;;24.10;87.40;;;;;;5044366;28;20118;-84
2022/09/01 12:18:12;;;;;;;5.35;3.10;;;24.30;88.40;;;;;;5040990;28;20092;-83
2022/09/01 12:20:38;;;;;;;3.50;3.10;;;24.30;88.90;;;;;;5045290;28;20028;-83
2022/09/01 12:23:27;;;;;;;3.50;2.75;;;24.90;87.50;;;;;;5053318;28;20081;-83
2022/09/01 12:25:59;;;;;;;5.50;3.53;;;25.10;86.70;;;;;;5041811;28;20036;-81
2022/09/01 12:28:29;;;;;;;4.20;2.80;;;25.10;87.10;;;;;;5035186;28;20271;-84
2022/09/01 12:30:56;;;;;;;5.63;3.00;;;;;;;;;;5052069;28;20190;-83
2022/09/01 12:33:23;;;;;;;5.80;2.60;;;25.10;86.40;;;;;;5051689;28;20040;-82
2022/09/01 12:35:49;;;;;;;3.97;2.90;;;25.10;85.90;;;;;;5034026;28;20479;-81
2022/09/01 12:38:18;;;;;;;4.25;3.10;;;25.20;86.30;;;;;;5037476;28;20116;-82
2022/09/01 12:40:48;;;;;;;4.75;2.80;;;25.30;85.70;;;;;;5053526;28;20033;-81
2022/09/01 12:43:48;;;;;;;6.70;2.83;;;25.50;84.80;;;;;;5047380;28;20025;-83
2022/09/01 12:46:43;;;;;;;3.63;2.70;;;25.90;83.30;;;;;;5012246;28;20040;-82
2022/09/01 12:49:21;;;;;;;3.92;2.70;;;25.90;83.60;;;;;;5047334;28;20079;-82
2022/09/01 12:51:47;;;;;;;4.88;2.80;;;25.90;81.80;;;;;;5031149;28;20508;-80
2022/09/01 12:54:29;;;;;;;3.95;2.95;;;25.80;81.80;;;;;;5033990;28;20029;-82
2022/09/01 12:56:56;;;;;;;3.90;2.70;;;25.90;81.80;;;;;;5047316;22;20036;-77
2022/09/01 12:59:25;;;;;;;4.25;2.85;;;26.20;81.80;;;;;;5037343;28;20204;-80
2022/09/01 13:01:51;;;;;;;5.25;3.00;;;26.40;80.80;;;;;;5057392;28;20033;-79
2022/09/01 13:04:23;;;;;;;5.88;2.80;;;26.60;80.30;;;;;;5073465;28;20058;-80
2022/09/01 13:06:51;;;;;;;3.40;2.50;;;26.80;80.60;;;;;;5078060;28;20038;-80
2022/09/01 13:09:17;;;;;;;4.28;2.80;;;;;;;;;;5076727;28;20024;-77
2022/09/01 13:11:46;;;;;;;3.55;2.70;;;26.70;79.30;;;;;;5059233;28;20046;-79
2022/09/01 13:14:13;;;;;;;4.72;2.55;;;26.50;79.10;;;;;;5058485;28;20037;-78
2022/09/01 13:16:38;;;;;;;3.83;2.67;;;26.30;80.00;;;;;;5061097;28;20033;-79
2022/09/01 13:19:05;;;;;;;5.35;2.53;;;25.70;80.70;;;;;;5078001;28;20478;-78